Time;durP1;ratioP1;P1;durP2;ratioP2;P2;SDS_P1;SDS_P2;PMS_P1;PMS_P2;Temp;Humidity;BMP_temperature;BMP_pressure;BME280_temperature;BME280_humidity;BME280_pressure;Samples;Min_cycle;Max_cycle;Signal;HPM_P1;HPM_P2
2021/08/25 00:02:16;;;;;;;5.37;2.40;;;17.70;58.50;;;;;;5057239;28;20441;-67
2021/08/25 00:04:44;;;;;;;2.60;2.40;;;17.70;58.60;;;;;;5056419;28;20488;-67
2021/08/25 00:07:11;;;;;;;3.40;2.30;;;17.60;58.60;;;;;;5055910;28;20930;-67
2021/08/25 00:09:39;;;;;;;4.23;2.47;;;17.60;58.70;;;;;;5056280;28;20465;-67
2021/08/25 00:12:07;;;;;;;3.10;2.70;;;17.60;58.70;;;;;;5056300;28;20449;-67
2021/08/25 00:14:35;;;;;;;3.63;2.40;;;17.60;58.90;;;;;;5056267;28;20452;-67
2021/08/25 00:17:03;;;;;;;2.70;2.03;;;17.50;58.80;;;;;;5055903;28;20445;-67
2021/08/25 00:19:30;;;;;;;2.10;1.90;;;17.40;59.10;;;;;;5056112;28;20582;-67
2021/08/25 00:21:57;;;;;;;2.60;2.40;;;17.40;59.30;;;;;;5056093;28;20452;-67
2021/08/25 00:24:24;;;;;;;2.53;2.17;;;17.30;59.40;;;;;;5056084;28;20452;-67
2021/08/25 00:26:50;;;;;;;3.40;2.47;;;17.30;59.60;;;;;;5055961;28;20483;-67
2021/08/25 00:29:17;;;;;;;4.07;2.53;;;17.30;59.50;;;;;;5055586;28;20466;-67
2021/08/25 00:31:44;;;;;;;2.50;2.30;;;17.20;59.50;;;;;;5055937;28;20449;-67
2021/08/25 00:34:12;;;;;;;2.80;2.20;;;17.20;59.50;;;;;;5055563;28;20950;-67
2021/08/25 00:36:39;;;;;;;3.20;2.50;;;17.20;59.50;;;;;;5055278;28;20456;-67
2021/08/25 00:39:05;;;;;;;2.80;2.40;;;17.20;59.50;;;;;;5055750;28;20461;-67
2021/08/25 00:41:32;;;;;;;2.17;1.93;;;17.10;59.40;;;;;;5055753;28;20449;-67
2021/08/25 00:43:59;;;;;;;4.50;2.20;;;17.10;59.40;;;;;;5055684;28;20457;-67
2021/08/25 00:46:27;;;;;;;2.47;2.17;;;17.10;59.50;;;;;;5055606;28;20446;-67
2021/08/25 00:48:54;;;;;;;3.70;2.67;;;17.10;59.50;;;;;;5055576;28;20453;-67
2021/08/25 00:51:23;;;;;;;4.03;2.63;;;17.10;60.10;;;;;;5055582;28;20448;-67
2021/08/25 00:53:50;;;;;;;4.63;2.20;;;17.10;59.70;;;;;;5055175;28;20477;-67
2021/08/25 00:56:17;;;;;;;2.43;2.20;;;17.10;59.90;;;;;;5055492;28;20442;-67
2021/08/25 00:58:45;;;;;;;2.53;2.33;;;17.00;60.00;;;;;;5055391;28;20442;-68
2021/08/25 01:01:20;;;;;;;2.90;2.13;;;16.90;59.90;;;;;;5055045;28;20458;-67
2021/08/25 01:03:51;;;;;;;4.50;2.50;;;16.90;60.00;;;;;;5055376;28;20437;-67
2021/08/25 01:06:24;;;;;;;2.23;2.00;;;16.90;60.10;;;;;;5055314;28;20437;-67
2021/08/25 01:08:51;;;;;;;3.30;1.97;;;16.90;60.00;;;;;;5055135;28;20472;-67
2021/08/25 01:11:18;;;;;;;2.20;2.00;;;16.90;60.00;;;;;;5055205;28;20446;-67
2021/08/25 01:13:45;;;;;;;2.47;2.27;;;16.90;60.20;;;;;;5055184;28;20442;-67
2021/08/25 01:16:13;;;;;;;2.57;2.37;;;16.90;60.20;;;;;;5055113;28;20446;-67
2021/08/25 01:18:41;;;;;;;4.37;2.30;;;16.80;60.20;;;;;;5054944;28;20445;-68
2021/08/25 01:21:09;;;;;;;3.20;2.60;;;16.80;60.40;;;;;;5055032;28;20449;-67
2021/08/25 01:23:40;;;;;;;3.87;2.70;;;16.80;60.70;;;;;;5054651;28;21001;-67
2021/08/25 01:26:08;;;;;;;3.17;2.43;;;16.80;61.00;;;;;;5055003;28;20433;-67
2021/08/25 01:28:37;;;;;;;6.40;2.30;;;16.80;61.10;;;;;;5054826;28;20488;-67
2021/08/25 01:31:06;;;;;;;3.40;2.00;;;16.70;60.90;;;;;;5054838;28;20448;-67
2021/08/25 01:33:32;;;;;;;4.20;2.67;;;16.70;61.00;;;;;;5054521;28;20448;-67
2021/08/25 01:36:00;;;;;;;3.80;2.33;;;16.70;61.00;;;;;;5054451;28;20450;-67
2021/08/25 01:38:32;;;;;;;6.30;2.57;;;16.70;61.10;;;;;;5054732;28;20429;-67
2021/08/25 01:40:59;;;;;;;3.70;2.67;;;16.60;61.00;;;;;;5054555;28;20470;-67
2021/08/25 01:43:26;;;;;;;3.00;2.40;;;16.60;61.20;;;;;;5054470;28;20454;-67
2021/08/25 01:45:52;;;;;;;3.13;2.03;;;16.60;61.30;;;;;;5054504;28;20469;-67
2021/08/25 01:48:21;;;;;;;3.87;2.23;;;16.50;61.30;;;;;;5053495;28;20484;-67
2021/08/25 01:50:48;;;;;;;2.57;2.13;;;16.50;61.60;;;;;;5054383;28;20497;-67
2021/08/25 01:53:15;;;;;;;3.07;2.40;;;16.40;61.70;;;;;;5054391;28;20450;-67
2021/08/25 01:55:42;;;;;;;2.50;2.30;;;16.40;62.00;;;;;;5054274;28;20454;-67
2021/08/25 01:58:09;;;;;;;3.17;2.77;;;16.30;61.80;;;;;;5054329;28;20429;-67
2021/08/25 02:00:36;;;;;;;3.60;2.80;;;16.30;62.10;;;;;;5054125;28;20488;-67
2021/08/25 02:03:03;;;;;;;2.20;2.00;;;16.20;62.40;;;;;;5054210;28;20852;-67
2021/08/25 02:05:31;;;;;;;2.90;2.43;;;16.10;62.50;;;;;;5054170;28;20453;-67
2021/08/25 02:07:57;;;;;;;2.80;2.17;;;16.10;62.50;;;;;;5054030;28;20472;-67
2021/08/25 02:10:24;;;;;;;3.07;2.73;;;16.00;62.60;;;;;;5053683;28;20883;-67
2021/08/25 02:12:51;;;;;;;3.10;2.33;;;16.10;62.90;;;;;;5054016;28;20446;-67
2021/08/25 02:15:18;;;;;;;2.20;2.00;;;16.10;63.00;;;;;;5054027;28;20499;-67
2021/08/25 02:17:45;;;;;;;3.23;2.47;;;16.10;63.00;;;;;;5053580;28;20924;-67
2021/08/25 02:20:12;;;;;;;3.50;2.60;;;16.00;62.80;;;;;;5053826;28;20465;-68
2021/08/25 02:22:40;;;;;;;6.83;2.67;;;16.00;62.90;;;;;;5053886;28;20449;-67
2021/08/25 02:25:08;;;;;;;3.37;2.60;;;16.00;63.70;;;;;;5053529;28;20967;-67
2021/08/25 02:27:35;;;;;;;3.20;2.43;;;16.00;63.10;;;;;;5053655;28;20485;-67
2021/08/25 02:30:01;;;;;;;3.00;2.60;;;16.00;63.40;;;;;;5053673;28;20462;-67
2021/08/25 02:32:28;;;;;;;2.30;2.10;;;16.00;63.50;;;;;;5053726;28;20442;-67
2021/08/25 02:34:55;;;;;;;3.10;2.50;;;15.90;63.50;;;;;;5053685;28;20450;-67
2021/08/25 02:37:22;;;;;;;2.97;2.03;;;15.90;63.50;;;;;;5053284;28;20880;-67
2021/08/25 02:39:50;;;;;;;2.70;2.50;;;15.90;63.40;;;;;;5053545;28;20464;-67
2021/08/25 02:42:17;;;;;;;3.43;2.50;;;15.80;63.50;;;;;;5053565;28;20442;-67
2021/08/25 02:44:43;;;;;;;2.43;2.20;;;15.80;63.60;;;;;;5053492;28;20468;-67
2021/08/25 02:47:12;;;;;;;3.37;3.03;;;15.80;63.70;;;;;;5053457;28;20426;-67
2021/08/25 02:49:39;;;;;;;2.57;2.10;;;15.80;63.80;;;;;;5053123;28;21014;-67
2021/08/25 02:52:06;;;;;;;6.13;2.67;;;15.70;63.70;;;;;;5053442;28;20449;-67
2021/08/25 02:54:33;;;;;;;3.30;2.70;;;15.70;64.20;;;;;;5053098;28;20445;-67
2021/08/25 02:57:01;;;;;;;3.10;2.80;;;15.60;64.70;;;;;;5053363;28;20445;-67
2021/08/25 02:59:28;;;;;;;4.87;3.37;;;15.50;64.80;;;;;;5052961;28;20875;-67
2021/08/25 03:01:55;;;;;;;4.33;3.20;;;15.50;65.00;;;;;;5053433;28;20436;-67
2021/08/25 03:04:21;;;;;;;4.07;2.90;;;15.40;65.20;;;;;;5053383;28;20441;-67
2021/08/25 03:06:48;;;;;;;6.43;2.93;;;15.40;65.10;;;;;;5053025;28;20456;-67
2021/08/25 03:09:15;;;;;;;5.57;3.17;;;15.40;64.90;;;;;;5053180;28;20558;-67
2021/08/25 03:11:41;;;;;;;4.30;3.00;;;15.40;64.70;;;;;;5053306;28;20437;-67
2021/08/25 03:14:10;;;;;;;4.20;3.30;;;15.50;64.80;;;;;;5052934;28;20939;-67
2021/08/25 03:16:37;;;;;;;3.87;3.00;;;15.50;64.70;;;;;;5053275;28;20430;-67
2021/08/25 03:19:04;;;;;;;7.73;3.03;;;15.40;64.80;;;;;;5052833;28;20986;-67
2021/08/25 03:21:30;;;;;;;4.37;2.33;;;15.40;64.80;;;;;;5053195;28;20452;-67
2021/08/25 03:23:57;;;;;;;5.00;3.40;;;15.40;64.80;;;;;;5053197;28;20475;-67
2021/08/25 03:26:24;;;;;;;5.27;3.20;;;15.40;64.90;;;;;;5053139;28;20449;-67
2021/08/25 03:28:50;;;;;;;5.57;3.00;;;15.40;64.80;;;;;;5052979;28;20610;-67
2021/08/25 03:31:18;;;;;;;3.20;2.67;;;15.40;64.70;;;;;;5052827;28;20943;-67
2021/08/25 03:33:45;;;;;;;3.40;2.87;;;15.40;64.70;;;;;;5053134;28;20446;-67
2021/08/25 03:36:12;;;;;;;4.80;2.70;;;15.40;65.00;;;;;;5053073;28;20445;-67
2021/08/25 03:38:38;;;;;;;4.90;3.07;;;15.40;65.20;;;;;;5053007;28;20449;-67
2021/08/25 03:41:05;;;;;;;5.93;3.47;;;15.40;65.30;;;;;;5052989;28;20452;-67
2021/08/25 03:43:32;;;;;;;3.80;3.40;;;15.30;65.10;;;;;;5052633;28;20935;-67
2021/08/25 03:45:58;;;;;;;5.83;3.10;;;15.30;65.10;;;;;;5052916;28;20456;-67
2021/08/25 03:48:26;;;;;;;5.13;3.47;;;15.30;65.10;;;;;;5052873;28;20473;-67
2021/08/25 03:50:53;;;;;;;5.17;2.57;;;15.30;65.30;;;;;;5052847;28;20476;-67
2021/08/25 03:53:20;;;;;;;2.53;2.33;;;15.20;65.10;;;;;;5052571;28;20928;-67
2021/08/25 03:55:47;;;;;;;3.93;3.43;;;15.20;65.30;;;;;;5052545;28;20932;-67
2021/08/25 03:58:13;;;;;;;3.03;2.67;;;15.20;65.30;;;;;;5052855;28;20476;-67
2021/08/25 04:00:40;;;;;;;3.93;3.10;;;15.20;65.60;;;;;;5052372;28;20496;-67
2021/08/25 04:03:07;;;;;;;3.80;3.40;;;15.10;65.60;;;;;;5052503;28;20794;-67
2021/08/25 04:05:35;;;;;;;3.80;3.00;;;15.10;65.60;;;;;;5052798;28;20780;-67
2021/08/25 04:08:02;;;;;;;5.03;3.20;;;15.10;65.70;;;;;;5052746;28;20465;-67
2021/08/25 04:10:28;;;;;;;4.63;3.20;;;15.10;65.60;;;;;;5053828;28;20466;-67
2021/08/25 04:12:55;;;;;;;4.03;3.10;;;15.10;65.60;;;;;;5056356;28;20445;-67
2021/08/25 04:15:22;;;;;;;4.37;3.10;;;15.00;65.70;;;;;;5056324;28;20445;-67
2021/08/25 04:17:48;;;;;;;4.73;3.40;;;15.10;65.80;;;;;;5056316;28;20438;-67
2021/08/25 04:20:15;;;;;;;5.00;3.50;;;15.00;66.00;;;;;;5056152;28;20468;-67
2021/08/25 04:22:43;;;;;;;4.50;3.70;;;15.00;66.00;;;;;;5056165;28;20442;-67
2021/08/25 04:25:11;;;;;;;4.70;3.30;;;14.90;66.00;;;;;;5056111;28;20441;-67
2021/08/25 04:27:37;;;;;;;3.53;3.13;;;15.00;66.10;;;;;;5055700;28;20449;-67
2021/08/25 04:30:05;;;;;;;3.17;2.87;;;14.90;66.10;;;;;;5055978;28;20821;-67
2021/08/25 04:32:32;;;;;;;4.90;4.23;;;15.00;66.40;;;;;;5055956;28;20810;-67
2021/08/25 04:34:59;;;;;;;4.57;3.03;;;14.90;66.30;;;;;;5055595;28;20817;-67
2021/08/25 04:37:26;;;;;;;5.33;3.47;;;15.00;66.60;;;;;;5055916;28;20430;-67
2021/08/25 04:39:54;;;;;;;5.93;3.97;;;14.90;66.60;;;;;;5055756;28;20537;-67
2021/08/25 04:42:20;;;;;;;5.40;3.13;;;14.90;66.70;;;;;;5055827;28;20517;-67
2021/08/25 04:44:47;;;;;;;4.97;3.57;;;14.90;66.70;;;;;;5055726;28;20446;-67
2021/08/25 04:47:14;;;;;;;4.87;3.20;;;14.80;66.70;;;;;;5055706;28;20449;-67
2021/08/25 04:49:40;;;;;;;5.20;4.20;;;14.90;66.70;;;;;;5055203;28;20481;-67
2021/08/25 04:52:07;;;;;;;4.40;3.00;;;14.80;66.80;;;;;;5055628;28;20860;-67
2021/08/25 04:54:34;;;;;;;3.77;3.37;;;14.80;66.80;;;;;;5055605;28;20445;-67
2021/08/25 04:57:02;;;;;;;4.90;3.73;;;14.90;66.90;;;;;;5055578;28;20794;-67
2021/08/25 04:59:29;;;;;;;5.60;3.23;;;14.80;66.90;;;;;;5055528;28;20527;-67
2021/08/25 05:01:57;;;;;;;3.97;3.60;;;14.90;67.10;;;;;;5055429;28;20475;-67
2021/08/25 05:04:23;;;;;;;4.03;3.17;;;14.90;67.40;;;;;;5055107;28;20960;-67
2021/08/25 05:06:50;;;;;;;3.73;3.13;;;14.90;67.60;;;;;;5055370;28;20445;-67
2021/08/25 05:09:17;;;;;;;7.50;4.13;;;14.90;67.60;;;;;;5054956;28;20454;-67
2021/08/25 05:11:43;;;;;;;4.70;3.40;;;14.90;67.90;;;;;;5055290;28;20822;-67
2021/08/25 05:14:12;;;;;;;6.43;3.27;;;14.90;68.10;;;;;;5055218;28;20441;-67
2021/08/25 05:16:38;;;;;;;6.60;3.47;;;14.90;68.40;;;;;;5055174;28;20442;-67
2021/08/25 05:19:05;;;;;;;8.30;3.63;;;14.90;68.70;;;;;;5054992;28;20485;-67
2021/08/25 05:21:32;;;;;;;5.10;3.70;;;14.90;68.80;;;;;;5054740;28;20935;-67
2021/08/25 05:24:01;;;;;;;3.83;3.50;;;14.90;69.10;;;;;;5055051;28;20444;-67
2021/08/25 05:26:28;;;;;;;5.27;3.50;;;14.90;69.20;;;;;;5054931;28;20445;-67
2021/08/25 05:28:56;;;;;;;4.30;3.00;;;15.00;69.50;;;;;;5054552;28;20810;-67
2021/08/25 05:31:24;;;;;;;4.77;3.20;;;15.00;69.60;;;;;;5054844;28;20486;-67
2021/08/25 05:33:50;;;;;;;7.60;4.00;;;15.00;69.80;;;;;;5054536;28;20951;-67
2021/08/25 05:36:17;;;;;;;5.40;3.87;;;15.00;70.30;;;;;;5054736;28;20474;-67
2021/08/25 05:38:44;;;;;;;5.40;4.23;;;14.90;70.60;;;;;;5054568;28;20477;-68
2021/08/25 05:41:10;;;;;;;4.20;3.80;;;14.90;71.10;;;;;;5054696;28;20442;-67
2021/08/25 05:43:37;;;;;;;5.80;4.37;;;15.00;71.50;;;;;;5054640;28;20449;-67
2021/08/25 05:46:04;;;;;;;6.60;4.80;;;15.00;71.60;;;;;;5054596;28;20445;-67
2021/08/25 05:48:32;;;;;;;7.47;4.10;;;15.00;71.80;;;;;;5054524;28;20438;-67
2021/08/25 05:50:58;;;;;;;5.40;4.90;;;15.10;72.10;;;;;;5054160;28;20994;-67
2021/08/25 05:53:25;;;;;;;5.23;4.30;;;15.10;72.30;;;;;;5054442;28;20452;-67
2021/08/25 05:55:52;;;;;;;6.40;4.87;;;15.10;72.40;;;;;;5054326;28;20499;-67
2021/08/25 05:58:19;;;;;;;8.27;5.70;;;15.10;72.70;;;;;;5054196;28;20445;-67
2021/08/25 06:00:46;;;;;;;11.10;5.20;;;15.20;73.20;;;;;;5054131;28;20481;-67
2021/08/25 06:03:12;;;;;;;5.80;5.03;;;15.20;73.50;;;;;;5055130;28;20448;-67
2021/08/25 06:05:40;;;;;;;6.33;5.63;;;15.30;73.90;;;;;;5054246;28;20445;-67
2021/08/25 06:08:07;;;;;;;7.07;6.13;;;15.30;74.00;;;;;;5054187;28;20430;-67
2021/08/25 06:10:34;;;;;;;7.50;6.70;;;15.40;74.20;;;;;;5054092;28;20464;-67
2021/08/25 06:13:00;;;;;;;8.30;5.63;;;15.40;74.50;;;;;;5054114;28;20422;-67
2021/08/25 06:15:27;;;;;;;8.47;6.17;;;15.50;74.50;;;;;;5053969;28;20445;-67
2021/08/25 06:17:54;;;;;;;8.80;7.00;;;15.60;74.60;;;;;;5053641;28;20933;-67
2021/08/25 06:20:20;;;;;;;14.40;6.13;;;15.70;75.00;;;;;;5053768;28;20487;-67
2021/08/25 06:22:48;;;;;;;6.77;6.00;;;15.70;75.00;;;;;;5053836;28;20442;-67
2021/08/25 06:25:15;;;;;;;7.47;6.60;;;15.80;75.30;;;;;;5053943;28;20437;-67
2021/08/25 06:27:42;;;;;;;10.00;5.93;;;15.80;75.40;;;;;;5053878;28;20450;-67
2021/08/25 06:30:09;;;;;;;11.63;6.13;;;15.90;75.80;;;;;;5053763;28;20458;-67
2021/08/25 06:32:36;;;;;;;7.43;6.10;;;16.00;76.10;;;;;;5053152;28;20951;-67
2021/08/25 06:35:03;;;;;;;7.37;6.67;;;16.00;76.50;;;;;;5053622;28;20452;-67
2021/08/25 06:37:30;;;;;;;9.00;6.00;;;16.10;76.70;;;;;;5053432;28;20437;-67
2021/08/25 06:39:58;;;;;;;7.50;6.17;;;16.20;77.20;;;;;;5053238;28;20995;-67
2021/08/25 06:42:25;;;;;;;6.73;5.43;;;16.30;77.40;;;;;;5053303;28;20448;-67
2021/08/25 06:44:52;;;;;;;7.70;5.57;;;16.40;77.60;;;;;;5053606;28;20449;-67
2021/08/25 06:47:18;;;;;;;8.27;5.60;;;16.50;77.40;;;;;;5053654;28;20438;-67
2021/08/25 06:49:45;;;;;;;8.00;6.77;;;16.60;77.00;;;;;;5053451;28;20458;-67
2021/08/25 06:52:12;;;;;;;12.23;6.43;;;16.70;77.10;;;;;;5053563;28;20429;-67
2021/08/25 06:54:38;;;;;;;8.17;5.23;;;16.70;77.00;;;;;;5053178;28;20943;-67
2021/08/25 06:57:07;;;;;;;7.90;6.10;;;16.90;76.90;;;;;;5053464;28;20457;-67
2021/08/25 06:59:33;;;;;;;12.67;6.03;;;17.00;76.30;;;;;;5053055;28;20572;-67
2021/08/25 07:02:00;;;;;;;5.90;5.23;;;17.10;76.10;;;;;;5053408;28;20503;-67
2021/08/25 07:04:27;;;;;;;7.87;6.23;;;17.30;76.30;;;;;;5053424;28;20487;-67
2021/08/25 07:06:54;;;;;;;7.67;5.77;;;17.40;76.20;;;;;;5053350;28;20445;-67
2021/08/25 07:09:21;;;;;;;6.30;4.80;;;17.50;76.00;;;;;;5052974;28;20462;-67
2021/08/25 07:11:47;;;;;;;6.80;5.50;;;17.70;75.80;;;;;;5053304;28;20452;-67
2021/08/25 07:14:15;;;;;;;6.50;5.20;;;17.80;74.70;;;;;;5053308;28;20434;-67
2021/08/25 07:16:42;;;;;;;6.70;5.10;;;18.00;74.50;;;;;;5053271;28;20446;-67
2021/08/25 07:19:09;;;;;;;6.57;5.23;;;18.10;74.20;;;;;;5053159;28;20485;-67
2021/08/25 07:21:35;;;;;;;7.87;5.20;;;18.30;73.20;;;;;;5052959;28;20928;-67
2021/08/25 07:24:03;;;;;;;5.80;5.10;;;18.40;72.50;;;;;;5053196;28;20449;-67
2021/08/25 07:26:30;;;;;;;5.73;4.53;;;18.50;71.70;;;;;;5052849;28;20540;-67
2021/08/25 07:28:57;;;;;;;6.17;4.70;;;18.70;71.00;;;;;;5053096;28;20441;-68
2021/08/25 07:31:25;;;;;;;4.90;4.07;;;18.80;70.00;;;;;;5053395;28;20449;-67
2021/08/25 07:33:52;;;;;;;8.13;4.30;;;19.00;69.80;;;;;;5053381;28;20461;-67
2021/08/25 07:36:19;;;;;;;4.87;3.97;;;19.10;68.10;;;;;;5053435;28;20442;-67
2021/08/25 07:38:46;;;;;;;5.50;4.20;;;19.40;67.30;;;;;;5053038;28;20445;-69
2021/08/25 07:41:13;;;;;;;7.10;4.20;;;19.60;66.60;;;;;;5053007;28;20441;-67
2021/08/25 07:43:39;;;;;;;5.83;4.37;;;19.70;65.00;;;;;;5052995;28;20452;-68
2021/08/25 07:46:06;;;;;;;5.97;4.00;;;19.80;64.00;;;;;;5055214;28;20436;-68
2021/08/25 07:48:34;;;;;;;7.50;4.70;;;20.00;63.00;;;;;;5056848;28;20448;-68
2021/08/25 07:51:03;;;;;;;4.73;4.20;;;20.20;63.00;;;;;;5056704;28;20457;-67
2021/08/25 07:53:30;;;;;;;7.03;4.77;;;20.40;62.30;;;;;;5056759;28;20452;-67
2021/08/25 07:55:57;;;;;;;4.13;3.73;;;20.60;62.00;;;;;;5056763;28;20783;-68
2021/08/25 07:58:23;;;;;;;6.20;4.40;;;20.80;61.20;;;;;;5056651;28;20782;-68
2021/08/25 08:00:50;;;;;;;7.90;4.53;;;20.90;59.90;;;;;;5056370;28;20493;-68
2021/08/25 08:03:17;;;;;;;5.70;3.67;;;21.00;59.40;;;;;;5056563;28;20449;-68
2021/08/25 08:05:45;;;;;;;4.47;3.60;;;21.20;58.60;;;;;;5056522;28;20442;-68
2021/08/25 08:08:11;;;;;;;4.93;3.70;;;21.50;58.10;;;;;;5056482;28;20441;-68
2021/08/25 08:10:38;;;;;;;4.90;3.87;;;21.70;57.70;;;;;;5056440;28;20468;-68
2021/08/25 08:13:05;;;;;;;4.00;3.63;;;22.00;57.00;;;;;;5056421;28;20441;-68
2021/08/25 08:15:33;;;;;;;4.97;3.70;;;22.20;56.00;;;;;;5056028;28;20441;-68
2021/08/25 08:18:07;;;;;;;5.23;4.70;;;22.50;55.20;;;;;;5056380;28;20480;-68
2021/08/25 08:20:34;;;;;;;5.70;4.00;;;22.70;54.70;;;;;;5055862;28;20485;-68
2021/08/25 08:23:02;;;;;;;6.13;3.60;;;22.90;53.80;;;;;;5056224;28;20436;-68
2021/08/25 08:25:29;;;;;;;5.17;4.20;;;23.10;52.50;;;;;;5056169;28;20441;-68
2021/08/25 08:27:56;;;;;;;3.90;3.43;;;23.30;52.60;;;;;;5056108;28;20449;-68
2021/08/25 08:30:22;;;;;;;3.27;2.87;;;23.50;51.70;;;;;;5056037;28;20540;-68
2021/08/25 08:32:49;;;;;;;3.57;3.20;;;23.80;51.00;;;;;;5055722;28;20449;-68
2021/08/25 08:35:16;;;;;;;3.27;2.97;;;24.00;50.50;;;;;;5055982;28;20451;-68
2021/08/25 08:37:42;;;;;;;4.20;3.50;;;24.20;50.00;;;;;;5055947;28;20464;-68
2021/08/25 08:40:12;;;;;;;4.03;3.20;;;24.50;49.40;;;;;;5055774;28;20485;-68
2021/08/25 08:42:39;;;;;;;3.33;2.80;;;24.70;48.80;;;;;;5055864;28;20453;-68
2021/08/25 08:45:07;;;;;;;3.50;2.93;;;24.90;48.00;;;;;;5055838;28;20445;-68
2021/08/25 08:47:34;;;;;;;3.40;2.90;;;25.10;47.00;;;;;;5055771;28;20515;-68
2021/08/25 08:50:02;;;;;;;3.20;2.73;;;25.30;46.60;;;;;;5055681;28;20465;-68
2021/08/25 08:52:29;;;;;;;4.63;2.70;;;25.50;46.30;;;;;;5055316;28;20847;-68
2021/08/25 08:54:57;;;;;;;4.90;3.63;;;25.70;45.80;;;;;;5055578;28;20464;-68
2021/08/25 08:57:25;;;;;;;7.77;3.43;;;25.90;45.50;;;;;;5055141;28;20476;-68
2021/08/25 08:59:52;;;;;;;5.27;2.97;;;26.00;44.70;;;;;;5055287;28;20492;-68
2021/08/25 09:02:37;;;;;;;4.30;3.07;;;26.00;43.90;;;;;;5055487;28;20491;-68
2021/08/25 09:05:15;;;;;;;3.80;2.70;;;26.10;44.00;;;;;;5055449;28;20426;-68
2021/08/25 09:07:48;;;;;;;2.80;2.50;;;26.30;44.40;;;;;;5055431;28;20433;-68
2021/08/25 09:10:20;;;;;;;3.00;2.50;;;26.50;44.00;;;;;;5054981;28;20971;-68
2021/08/25 09:12:50;;;;;;;5.87;3.40;;;26.70;43.50;;;;;;5055325;28;20429;-68
2021/08/25 09:15:22;;;;;;;8.07;3.50;;;26.90;41.70;;;;;;5055224;28;20445;-68
2021/08/25 09:17:55;;;;;;;3.70;2.60;;;27.00;40.70;;;;;;5055266;28;20433;-68
2021/08/25 09:20:22;;;;;;;6.57;3.60;;;27.10;40.60;;;;;;5054729;28;20524;-68
2021/08/25 09:23:07;;;;;;;8.00;3.03;;;27.30;41.50;;;;;;5054822;28;20791;-69
2021/08/25 09:25:35;;;;;;;5.10;3.03;;;27.50;41.80;;;;;;5055103;28;20818;-69
2021/08/25 09:28:04;;;;;;;5.20;2.73;;;27.70;41.40;;;;;;5055030;28;20445;-69
2021/08/25 09:31:01;;;;;;;9.40;3.73;;;27.90;40.80;;;;;;5054884;28;20461;-69
2021/08/25 09:33:31;;;;;;;4.53;3.47;;;28.10;39.10;;;;;;4993337;28;20424;-69
2021/08/25 09:36:00;;;;;;;5.10;3.30;;;28.10;38.10;;;;;;5041636;28;20549;-68
2021/08/25 09:38:28;;;;;;;3.07;2.47;;;28.10;38.50;;;;;;5054804;28;20446;-69
2021/08/25 09:40:57;;;;;;;4.57;3.20;;;28.30;39.40;;;;;;5054567;28;20485;-69
2021/08/25 09:43:40;;;;;;;7.70;3.60;;;28.40;39.50;;;;;;5054711;28;20449;-69
2021/08/25 09:46:08;;;;;;;5.10;3.70;;;28.60;37.60;;;;;;5054663;28;20430;-69
2021/08/25 09:48:37;;;;;;;6.70;3.00;;;28.70;37.60;;;;;;5054551;28;20445;-69
2021/08/25 09:51:04;;;;;;;3.27;2.97;;;28.80;37.60;;;;;;5054468;28;20465;-69
2021/08/25 09:53:31;;;;;;;5.00;2.93;;;28.80;37.00;;;;;;5054499;28;20445;-69
2021/08/25 09:55:58;;;;;;;2.93;2.63;;;29.00;37.10;;;;;;5054488;28;20422;-69
2021/08/25 09:58:25;;;;;;;3.60;3.27;;;29.20;37.30;;;;;;5054397;28;20448;-69
2021/08/25 10:00:55;;;;;;;2.87;2.50;;;29.40;35.70;;;;;;5053830;28;20536;-68
2021/08/25 10:03:22;;;;;;;6.20;3.70;;;29.70;34.60;;;;;;5054312;28;20441;-68
2021/08/25 10:05:49;;;;;;;4.03;3.30;;;29.80;33.00;;;;;;5054238;28;20445;-68
2021/08/25 10:08:17;;;;;;;4.57;3.43;;;29.90;33.10;;;;;;5053511;28;20422;-69
2021/08/25 10:10:45;;;;;;;3.93;3.53;;;30.00;32.40;;;;;;5053830;28;21041;-69
2021/08/25 10:13:12;;;;;;;7.03;3.30;;;30.10;32.70;;;;;;5054146;28;20448;-69
2021/08/25 10:15:47;;;;;;;4.70;3.80;;;30.30;32.90;;;;;;5054064;28;20449;-69
2021/08/25 10:18:24;;;;;;;5.07;3.53;;;30.70;33.30;;;;;;5054065;28;20430;-69
2021/08/25 10:20:52;;;;;;;3.47;3.17;;;31.10;32.90;;;;;;5053878;28;20485;-69
2021/08/25 10:23:19;;;;;;;5.47;4.10;;;31.50;30.50;;;;;;5053980;28;20448;-69
2021/08/25 10:26:06;;;;;;;5.70;3.60;;;31.80;30.30;;;;;;5053943;28;20449;-69
2021/08/25 10:29:03;;;;;;;4.10;3.20;;;32.10;30.30;;;;;;5053556;28;20930;-69
2021/08/25 10:32:13;;;;;;;4.87;3.30;;;32.50;28.50;;;;;;5053901;28;20433;-69
2021/08/25 10:34:43;;;;;;;4.93;3.50;;;32.80;27.80;;;;;;5053799;28;20437;-69
2021/08/25 10:37:30;;;;;;;4.23;3.37;;;33.10;27.80;;;;;;5053774;28;20445;-69
2021/08/25 10:40:02;;;;;;;3.07;2.77;;;33.30;27.00;;;;;;5053918;28;20534;-69
2021/08/25 10:42:49;;;;;;;4.33;3.50;;;33.70;27.50;;;;;;5053718;28;20441;-69
2021/08/25 10:45:17;;;;;;;8.27;3.87;;;34.30;27.00;;;;;;5053722;28;20440;-69
2021/08/25 10:48:09;;;;;;;4.00;3.40;;;35.00;27.00;;;;;;5053719;28;20425;-70
2021/08/25 10:50:54;;;;;;;3.20;2.90;;;35.70;25.80;;;;;;5049998;28;20469;-70
2021/08/25 10:53:38;;;;;;;4.60;3.20;;;36.30;24.20;;;;;;5053701;28;20194;-69
2021/08/25 10:56:10;;;;;;;5.13;3.00;;;36.70;21.90;;;;;;5053617;28;20806;-69
2021/08/25 10:58:44;;;;;;;4.50;3.40;;;37.10;22.60;;;;;;5053197;28;20285;-69
2021/08/25 11:01:24;;;;;;;4.80;3.20;;;37.20;22.00;;;;;;5053001;28;20225;-70
2021/08/25 11:03:52;;;;;;;4.27;3.13;;;37.50;22.40;;;;;;5053201;28;20663;-69
2021/08/25 11:06:35;;;;;;;5.68;3.70;;;37.80;21.90;;;;;;5053394;28;20217;-69
2021/08/25 11:09:27;;;;;;;4.90;3.22;;;38.00;22.00;;;;;;5053862;28;20183;-70
2021/08/25 11:11:56;;;;;;;6.13;3.45;;;38.20;21.80;;;;;;5038599;28;20203;-70
2021/08/25 11:14:32;;;;;;;7.30;4.05;;;38.50;22.10;;;;;;5053327;28;20202;-69
2021/08/25 11:17:04;;;;;;;4.55;3.92;;;38.90;22.40;;;;;;5053336;28;20221;-69
2021/08/25 11:19:33;;;;;;;7.55;4.18;;;39.30;20.90;;;;;;5054574;28;20249;-70
2021/08/25 11:22:02;;;;;;;7.32;3.80;;;39.70;20.90;;;;;;5057347;28;20615;-70
2021/08/25 11:24:35;;;;;;;4.47;3.75;;;40.10;20.70;;;;;;5057344;28;20182;-70
2021/08/25 11:27:01;;;;;;;5.82;4.32;;;40.50;19.40;;;;;;5057275;28;20198;-70
2021/08/25 11:29:28;;;;;;;4.47;3.78;;;40.90;19.30;;;;;;5057159;28;20626;-70
2021/08/25 11:31:55;;;;;;;4.97;4.40;;;41.10;18.10;;;;;;5057176;28;20205;-70
2021/08/25 11:34:23;;;;;;;5.78;4.40;;;41.20;18.60;;;;;;5057187;28;20209;-70
2021/08/25 11:36:54;;;;;;;5.10;4.57;;;41.20;18.60;;;;;;5057130;28;20202;-70
2021/08/25 11:39:22;;;;;;;5.32;4.07;;;41.20;18.40;;;;;;5056975;28;20248;-70
2021/08/25 11:41:50;;;;;;;5.47;4.63;;;41.10;17.90;;;;;;5056957;28;20237;-70
2021/08/25 11:44:35;;;;;;;5.70;4.63;;;40.90;17.80;;;;;;5057000;28;20209;-70
2021/08/25 11:47:13;;;;;;;6.35;5.00;;;40.80;18.40;;;;;;5056937;28;20582;-70
2021/08/25 11:49:41;;;;;;;4.90;4.43;;;40.80;18.40;;;;;;5056847;28;20222;-70
2021/08/25 11:52:09;;;;;;;4.78;3.97;;;40.90;19.00;;;;;;5056516;28;20544;-70
2021/08/25 11:54:37;;;;;;;5.82;4.60;;;41.20;19.80;;;;;;5056833;28;20638;-70
2021/08/25 11:57:05;;;;;;;6.35;5.75;;;41.60;19.80;;;;;;5056451;28;20671;-70
2021/08/25 11:59:32;;;;;;;6.80;4.50;;;41.80;18.00;;;;;;5056410;28;20226;-70
2021/08/25 12:02:06;;;;;;;6.05;5.45;;;41.90;18.40;;;;;;5056267;28;20206;-69
2021/08/25 12:04:33;;;;;;;5.90;5.30;;;42.00;17.70;;;;;;5056626;28;20228;-70
2021/08/25 12:06:59;;;;;;;6.43;5.13;;;41.90;18.70;;;;;;5056536;28;20202;-70
2021/08/25 12:09:30;;;;;;;6.43;5.45;;;42.10;17.80;;;;;;5056449;28;20222;-70
2021/08/25 12:11:59;;;;;;;6.72;5.50;;;42.30;18.00;;;;;;5056519;28;20210;-70
2021/08/25 12:14:25;;;;;;;6.68;5.97;;;42.30;18.10;;;;;;5056388;28;20210;-70
2021/08/25 12:17:03;;;;;;;7.75;5.40;;;42.40;17.60;;;;;;5056383;28;20201;-70
2021/08/25 12:19:30;;;;;;;6.72;5.45;;;42.30;17.80;;;;;;5055941;28;20268;-70
2021/08/25 12:21:57;;;;;;;6.55;5.55;;;42.30;17.90;;;;;;5056266;28;20293;-70
2021/08/25 12:24:24;;;;;;;5.70;5.20;;;42.50;17.90;;;;;;5055985;28;20679;-70
2021/08/25 12:26:55;;;;;;;7.03;5.95;;;42.80;17.40;;;;;;5056090;28;20194;-70
2021/08/25 12:29:31;;;;;;;5.75;5.25;;;43.00;16.60;;;;;;5055883;28;20225;-70
2021/08/25 12:31:59;;;;;;;7.47;5.57;;;43.20;16.70;;;;;;5055164;28;20190;-70
2021/08/25 12:34:26;;;;;;;7.32;5.13;;;43.30;17.30;;;;;;5055839;28;20209;-70
2021/08/25 12:36:56;;;;;;;8.38;5.53;;;43.40;16.30;;;;;;5055803;28;20207;-70
2021/08/25 12:39:27;;;;;;;13.48;5.28;;;43.60;16.30;;;;;;5055710;28;20268;-70
2021/08/25 12:41:55;;;;;;;6.47;4.55;;;43.50;16.50;;;;;;5055423;28;20604;-70
2021/08/25 12:44:22;;;;;;;7.38;5.78;;;43.50;16.60;;;;;;5055765;28;20213;-70
2021/08/25 12:46:52;;;;;;;6.70;6.10;;;43.70;16.90;;;;;;5055337;28;20672;-70
2021/08/25 12:49:19;;;;;;;6.07;5.20;;;43.80;15.50;;;;;;5055583;28;20229;-70
2021/08/25 12:51:46;;;;;;;9.95;6.30;;;43.80;16.50;;;;;;5055259;28;20541;-70
2021/08/25 12:54:13;;;;;;;6.40;5.55;;;43.90;16.50;;;;;;5055549;28;20226;-70